Time;durP1;ratioP1;P1;durP2;ratioP2;P2;SDS_P1;SDS_P2;PMS_P1;PMS_P2;Temp;Humidity;BMP_temperature;BMP_pressure;BME280_temperature;BME280_humidity;BME280_pressure;Samples;Min_cycle;Max_cycle;Signal;HPM_P1;HPM_P2
2022/05/26 00:01:52;;;;;;;;;;;;;;;15.98;42.57;100939.88;5062359;28;1905;-58
2022/05/26 00:04:17;;;;;;;;;;;;;;;16.15;43.87;100924.03;5058111;28;830;-55
2022/05/26 00:06:43;;;;;;;;;;;;;;;16.38;44.87;100917.28;5058079;28;989;-57
2022/05/26 00:09:08;;;;;;;;;;;;;;;16.54;45.55;100917.34;5039677;28;1468;-59
2022/05/26 00:11:34;;;;;;;;;;;;;;;16.64;46.30;100909.13;5058473;28;802;-58
2022/05/26 00:14:03;;;;;;;;;;;;;;;16.72;46.72;100914.09;5057833;28;1261;-58
2022/05/26 00:16:28;;;;;;;;;;;;;;;16.90;46.70;100911.94;5064138;28;922;-57
2022/05/26 00:18:53;;;;;;;;;;;;;;;16.97;47.20;100906.19;5039830;28;1216;-59
2022/05/26 00:21:19;;;;;;;;;;;;;;;17.01;47.52;100899.91;5057729;28;1949;-56
2022/05/26 00:23:44;;;;;;;;;;;;;;;17.09;47.74;100891.09;5060690;28;790;-57
2022/05/26 00:26:10;;;;;;;;;;;;;;;17.04;47.05;100890.25;5057629;28;782;-57
2022/05/26 00:28:35;;;;;;;;;;;;;;;16.93;46.22;100884.78;5057034;28;940;-57
2022/05/26 00:31:01;;;;;;;;;;;;;;;16.76;45.04;100889.69;5057731;28;891;-58
2022/05/26 00:33:26;;;;;;;;;;;;;;;16.64;44.23;100897.34;5057685;28;826;-58
2022/05/26 00:35:52;;;;;;;;;;;;;;;16.45;43.46;100894.25;5058564;28;792;-57
2022/05/26 00:38:17;;;;;;;;;;;;;;;16.38;42.81;100897.25;5057570;28;802;-57
2022/05/26 00:40:43;;;;;;;;;;;;;;;16.25;42.23;100890.34;5057649;28;1977;-57
2022/05/26 00:43:08;;;;;;;;;;;;;;;16.31;41.82;100882.94;5057252;28;722;-56
2022/05/26 00:45:43;;;;;;;;;;;;;;;16.17;41.67;100885.38;5071578;28;895;-56
2022/05/26 00:48:12;;;;;;;;;;;;;;;16.07;41.38;100886.16;5056525;28;818;-56
2022/05/26 00:50:42;;;;;;;;;;;;;;;16.03;41.25;100877.63;5061359;28;947;-57
2022/05/26 00:53:22;;;;;;;;;;;;;;;15.96;41.33;100870.72;5056902;28;861;-57
2022/05/26 00:55:50;;;;;;;;;;;;;;;15.95;41.27;100869.91;5039802;28;869;-56
2022/05/26 00:58:17;;;;;;;;;;;;;;;15.93;41.35;100871.28;5056930;28;825;-57
2022/05/26 01:00:43;;;;;;;;;;;;;;;15.89;40.94;100873.72;5059761;28;1976;-56
2022/05/26 01:03:23;;;;;;;;;;;;;;;15.89;41.09;100879.19;5060167;28;848;-56
2022/05/26 01:05:49;;;;;;;;;;;;;;;15.81;41.21;100879.69;5038699;28;939;-56
2022/05/26 01:08:25;;;;;;;;;;;;;;;15.73;40.96;100878.28;5056831;28;785;-56
2022/05/26 01:10:51;;;;;;;;;;;;;;;15.72;41.08;100865.66;5038242;28;1155;-56
2022/05/26 01:13:16;;;;;;;;;;;;;;;15.76;41.01;100879.66;5057284;28;881;-56
2022/05/26 01:15:42;;;;;;;;;;;;;;;15.75;40.69;100892.53;5066164;28;1017;-56
2022/05/26 01:18:14;;;;;;;;;;;;;;;15.64;40.86;100886.19;5040597;28;1080;-56
2022/05/26 01:20:43;;;;;;;;;;;;;;;15.59;40.79;100896.28;5039337;28;1910;-56
2022/05/26 01:23:17;;;;;;;;;;;;;;;15.64;41.35;100896.28;5056578;28;882;-56
2022/05/26 01:25:48;;;;;;;;;;;;;;;15.89;42.37;100898.38;5056647;28;857;-56
2022/05/26 01:28:32;;;;;;;;;;;;;;;16.26;44.35;100897.47;5039341;28;861;-58
2022/05/26 01:31:16;;;;;;;;;;;;;;;16.67;46.99;100903.09;5069959;28;804;-58
2022/05/26 01:33:48;;;;;;;;;;;;;;;17.05;48.27;100902.91;5056622;28;1263;-57
2022/05/26 01:36:19;;;;;;;;;;;;;;;17.24;49.48;100889.47;5056872;28;914;-57
2022/05/26 01:38:51;;;;;;;;;;;;;;;17.51;49.99;100893.84;5037772;28;821;-58
2022/05/26 01:41:16;;;;;;;;;;;;;;;17.36;49.66;100887.25;5059857;28;2223;-57
2022/05/26 01:43:50;;;;;;;;;;;;;;;17.22;48.66;100859.50;5056654;28;829;-59
2022/05/26 01:46:34;;;;;;;;;;;;;;;17.06;47.01;100869.66;5050559;28;1132;-57
2022/05/26 01:49:04;;;;;;;;;;;;;;;16.79;45.55;100869.06;5056543;28;970;-57
2022/05/26 01:51:36;;;;;;;;;;;;;;;16.58;44.09;100878.09;5039159;28;812;-57
2022/05/26 01:54:25;;;;;;;;;;;;;;;16.50;42.81;100883.28;5037118;28;843;-60
2022/05/26 01:56:55;;;;;;;;;;;;;;;16.33;42.20;100870.63;5045681;28;1647;-58
2022/05/26 01:59:24;;;;;;;;;;;;;;;16.24;42.15;100864.84;5056104;28;1011;-58
2022/05/26 02:01:51;;;;;;;;;;;;;;;16.22;41.69;100852.47;5048645;28;1918;-57
2022/05/26 02:04:18;;;;;;;;;;;;;;;16.19;41.77;100853.00;5061662;28;908;-57
2022/05/26 02:06:48;;;;;;;;;;;;;;;16.14;41.42;100837.34;5044022;28;1129;-57
2022/05/26 02:09:16;;;;;;;;;;;;;;;16.16;41.43;100840.66;5051074;28;778;-57
2022/05/26 02:11:44;;;;;;;;;;;;;;;16.08;41.30;100836.50;5057937;28;848;-58
2022/05/26 02:14:13;;;;;;;;;;;;;;;16.10;41.31;100828.00;5075274;28;1038;-57
2022/05/26 02:16:49;;;;;;;;;;;;;;;16.02;41.27;100832.09;5062803;28;955;-57
2022/05/26 02:19:16;;;;;;;;;;;;;;;16.00;41.32;100823.31;5061547;28;864;-58
2022/05/26 02:21:50;;;;;;;;;;;;;;;15.96;41.45;100819.44;5038245;28;1909;-57
2022/05/26 02:24:17;;;;;;;;;;;;;;;15.88;41.31;100828.22;5038025;28;741;-57
2022/05/26 02:26:42;;;;;;;;;;;;;;;15.84;41.32;100822.41;5037655;28;1070;-60
2022/05/26 02:31:51;;;;;;;;;;;;;;;15.83;41.12;100836.41;5049385;28;828;-57
2022/05/26 02:34:17;;;;;;;;;;;;;;;15.80;41.01;100836.94;5056165;28;893;-57
2022/05/26 02:36:43;;;;;;;;;;;;;;;15.72;40.90;100836.34;5037689;28;928;-57
2022/05/26 02:39:08;;;;;;;;;;;;;;;15.78;41.00;100836.34;5056606;28;1380;-57
2022/05/26 02:41:33;;;;;;;;;;;;;;;15.80;40.88;100845.16;5055747;28;1983;-57
2022/05/26 02:43:59;;;;;;;;;;;;;;;15.73;40.72;100846.19;5057874;28;830;-56
2022/05/26 02:46:34;;;;;;;;;;;;;;;15.69;41.00;100845.06;5067395;28;736;-56
2022/05/26 02:49:00;;;;;;;;;;;;;;;15.78;40.77;100842.66;5041886;28;854;-57
2022/05/26 02:51:37;;;;;;;;;;;;;;;15.69;41.16;100838.78;5059084;28;810;-57
2022/05/26 02:54:21;;;;;;;;;;;;;;;15.89;42.24;100838.91;5059504;28;790;-57
2022/05/26 02:57:07;;;;;;;;;;;;;;;16.12;43.46;100833.22;5065488;28;829;-57
2022/05/26 02:59:44;;;;;;;;;;;;;;;16.31;44.41;100828.06;5041009;28;835;-57
2022/05/26 03:02:14;;;;;;;;;;;;;;;16.49;45.56;100832.22;5058984;28;1902;-56
2022/05/26 03:04:44;;;;;;;;;;;;;;;16.55;46.25;100837.47;5040885;28;798;-56
2022/05/26 03:07:11;;;;;;;;;;;;;;;16.70;46.85;100839.38;5041596;28;816;-58
2022/05/26 03:09:36;;;;;;;;;;;;;;;16.80;46.76;100835.81;5045050;28;826;-58
2022/05/26 03:12:02;;;;;;;;;;;;;;;16.88;47.16;100842.72;5042860;28;869;-58
2022/05/26 03:14:27;;;;;;;;;;;;;;;16.93;47.12;100846.31;5058993;28;1222;-58
2022/05/26 03:16:53;;;;;;;;;;;;;;;17.05;47.32;100845.22;5065462;28;875;-59
2022/05/26 03:19:18;;;;;;;;;;;;;;;17.02;47.37;100843.03;5066675;28;985;-59
2022/05/26 03:21:44;;;;;;;;;;;;;;;16.98;46.56;100841.91;5075017;28;1977;-58
2022/05/26 03:24:09;;;;;;;;;;;;;;;16.83;45.47;100845.44;5058733;28;826;-58
2022/05/26 03:26:35;;;;;;;;;;;;;;;16.67;44.53;100839.94;5058565;28;810;-60
2022/05/26 03:29:00;;;;;;;;;;;;;;;16.52;43.37;100834.44;5059118;28;739;-59
2022/05/26 03:31:25;;;;;;;;;;;;;;;16.44;42.73;100841.28;5061909;28;908;-59
2022/05/26 03:42:03;;;;;;;;;;;;;;;16.20;41.46;100838.19;5058484;28;1957;-62
2022/05/26 03:44:29;;;;;;;;;;;;;;;16.16;41.44;100848.03;5058617;28;837;-61
2022/05/26 03:46:54;;;;;;;;;;;;;;;16.05;41.55;100848.00;5061568;28;985;-61
2022/05/26 03:49:19;;;;;;;;;;;;;;;16.04;41.22;100846.34;5040106;28;890;-63
2022/05/26 03:51:45;;;;;;;;;;;;;;;16.06;41.27;100848.81;5058725;28;952;-62
2022/05/26 03:54:10;;;;;;;;;;;;;;;15.98;41.38;100839.22;5057935;28;795;-63
2022/05/26 03:56:36;;;;;;;;;;;;;;;15.92;41.02;100837.53;5058695;28;836;-60
2022/05/26 03:59:01;;;;;;;;;;;;;;;15.97;41.05;100840.28;5057598;28;826;-60
2022/05/26 04:01:27;;;;;;;;;;;;;;;15.95;41.21;100845.25;5063848;28;1898;-61
2022/05/26 04:03:52;;;;;;;;;;;;;;;15.86;41.07;100844.09;5058507;28;865;-59
2022/05/26 04:06:18;;;;;;;;;;;;;;;15.86;41.12;100841.34;5058453;28;849;-58
2022/05/26 04:08:43;;;;;;;;;;;;;;;15.87;41.10;100826.56;5057956;28;861;-59
2022/05/26 04:11:09;;;;;;;;;;;;;;;15.84;41.10;100838.06;5063679;28;1079;-59
2022/05/26 04:13:34;;;;;;;;;;;;;;;15.85;40.97;100842.44;5059458;28;828;-59
2022/05/26 04:16:01;;;;;;;;;;;;;;;15.84;41.11;100846.28;5062146;28;1115;-59
2022/05/26 04:18:26;;;;;;;;;;;;;;;15.78;41.30;100859.13;5057892;28;723;-59
2022/05/26 04:20:51;;;;;;;;;;;;;;;15.80;41.13;100884.38;5057594;28;1918;-59
2022/05/26 04:23:17;;;;;;;;;;;;;;;15.81;41.40;100956.47;5057311;28;831;-59
2022/05/26 04:25:42;;;;;;;;;;;;;;;15.86;41.38;100986.69;5059961;28;819;-59
2022/05/26 04:28:08;;;;;;;;;;;;;;;15.81;41.36;100961.97;5065983;28;1032;-57
2022/05/26 04:30:33;;;;;;;;;;;;;;;15.73;41.39;100947.63;5068482;28;1300;-59
2022/05/26 04:32:59;;;;;;;;;;;;;;;15.66;41.16;100938.81;5057776;28;892;-59
2022/05/26 04:35:24;;;;;;;;;;;;;;;15.58;41.02;100942.03;5057544;28;900;-60
2022/05/26 04:37:50;;;;;;;;;;;;;;;15.69;41.05;100970.34;5058371;28;754;-59
2022/05/26 04:40:15;;;;;;;;;;;;;;;15.79;41.27;100980.56;5062472;28;1890;-58
2022/05/26 04:42:41;;;;;;;;;;;;;;;15.67;41.44;100978.84;5057563;28;1192;-59
2022/05/26 04:45:07;;;;;;;;;;;;;;;15.79;42.21;100958.63;5057410;28;1020;-57
2022/05/26 04:47:32;;;;;;;;;;;;;;;16.04;43.07;100949.78;5063973;28;793;-58
2022/05/26 04:49:58;;;;;;;;;;;;;;;16.17;44.23;100946.56;5057246;28;798;-60
2022/05/26 04:52:23;;;;;;;;;;;;;;;16.38;45.05;100944.75;5063792;28;873;-59
2022/05/26 04:54:49;;;;;;;;;;;;;;;16.50;45.67;100955.47;5057362;28;992;-60
2022/05/26 04:57:15;;;;;;;;;;;;;;;16.68;46.14;100969.84;5057226;28;827;-59
2022/05/26 04:59:40;;;;;;;;;;;;;;;16.74;46.45;100958.56;5057383;28;809;-59
2022/05/26 05:02:09;;;;;;;;;;;;;;;16.86;47.40;100933.63;5056868;28;1972;-55
2022/05/26 05:04:34;;;;;;;;;;;;;;;16.93;47.49;100947.94;5063350;28;806;-58
2022/05/26 05:07:00;;;;;;;;;;;;;;;17.00;47.40;100942.19;5057051;28;758;-58
2022/05/26 05:09:25;;;;;;;;;;;;;;;17.07;47.30;100930.94;5056629;28;818;-58
2022/05/26 05:11:51;;;;;;;;;;;;;;;16.88;46.77;100933.34;5056756;28;823;-58
2022/05/26 05:14:16;;;;;;;;;;;;;;;16.75;45.77;100929.22;5056477;28;1116;-59
2022/05/26 05:16:42;;;;;;;;;;;;;;;16.70;44.75;100934.69;5062196;28;840;-58
2022/05/26 05:19:10;;;;;;;;;;;;;;;16.54;43.66;100920.09;5056236;28;821;-58
2022/05/26 05:21:38;;;;;;;;;;;;;;;16.55;42.71;100917.06;5055818;28;1975;-58
2022/05/26 05:24:06;;;;;;;;;;;;;;;16.43;42.52;100925.53;5056689;28;959;-59
2022/05/26 05:26:34;;;;;;;;;;;;;;;16.34;42.20;100946.38;5056729;28;902;-58
2022/05/26 05:29:00;;;;;;;;;;;;;;;16.34;41.89;100949.13;5040781;28;898;-58
2022/05/26 05:31:27;;;;;;;;;;;;;;;16.30;41.67;100942.50;5063212;28;848;-59
2022/05/26 05:33:54;;;;;;;;;;;;;;;16.17;41.74;100932.84;5039076;28;860;-59
2022/05/26 05:36:24;;;;;;;;;;;;;;;16.21;41.59;100938.59;5056276;28;838;-58
2022/05/26 05:38:49;;;;;;;;;;;;;;;16.11;41.66;100933.09;5038478;28;858;-59
2022/05/26 05:41:14;;;;;;;;;;;;;;;16.11;41.36;100944.06;5056359;28;1901;-58
2022/05/26 05:43:40;;;;;;;;;;;;;;;16.10;41.46;100953.38;5063213;28;789;-59
2022/05/26 05:46:08;;;;;;;;;;;;;;;16.13;41.10;100959.16;5062230;28;889;-60
2022/05/26 05:48:34;;;;;;;;;;;;;;;16.14;41.17;100966.28;5056311;28;830;-59
2022/05/26 05:51:00;;;;;;;;;;;;;;;16.15;41.21;100958.91;5056899;28;789;-59
2022/05/26 05:53:26;;;;;;;;;;;;;;;16.12;40.89;100953.91;5038544;28;852;-58
2022/05/26 05:55:51;;;;;;;;;;;;;;;16.02;41.01;100941.81;5067767;28;944;-58
2022/05/26 05:58:17;;;;;;;;;;;;;;;16.05;41.22;100935.78;5071082;28;1133;-57
2022/05/26 06:00:42;;;;;;;;;;;;;;;15.99;41.40;100947.00;5068089;28;1970;-59
2022/05/26 06:03:08;;;;;;;;;;;;;;;16.02;41.07;100947.28;5070514;28;1353;-58
2022/05/26 06:05:33;;;;;;;;;;;;;;;16.11;40.94;100933.09;5075631;28;813;-60
2022/05/26 06:07:58;;;;;;;;;;;;;;;16.06;41.18;100937.44;5068140;28;880;-58
2022/05/26 06:10:24;;;;;;;;;;;;;;;16.07;41.00;100943.75;5056057;28;793;-58
2022/05/26 06:12:49;;;;;;;;;;;;;;;15.97;41.27;100933.53;5062654;28;1114;-61
2022/05/26 06:15:15;;;;;;;;;;;;;;;16.00;41.39;100922.03;5068101;28;1230;-60
2022/05/26 06:17:42;;;;;;;;;;;;;;;16.02;41.19;100922.63;5059260;28;1071;-57
2022/05/26 06:20:10;;;;;;;;;;;;;;;16.04;41.27;100923.16;5069159;28;893;-61
2022/05/26 06:22:37;;;;;;;;;;;;;;;15.93;41.18;100926.13;5079821;28;806;-58
2022/05/26 06:25:03;;;;;;;;;;;;;;;15.97;41.25;100925.31;5074401;28;1048;-59
2022/05/26 06:30:13;;;;;;;;;;;;;;;15.88;41.62;100925.00;5069790;28;1182;-59
2022/05/26 06:38:28;;;;;;;;;;;;;;;15.96;41.17;100939.31;5078390;28;1051;-60
2022/05/26 06:40:54;;;;;;;;;;;;;;;15.89;41.21;100942.28;5069064;28;1918;-61
2022/05/26 06:43:19;;;;;;;;;;;;;;;15.92;41.42;100941.72;5075320;28;1277;-61
2022/05/26 06:45:45;;;;;;;;;;;;;;;15.87;41.34;100939.78;5069430;28;1028;-61
2022/05/26 06:48:11;;;;;;;;;;;;;;;15.91;41.47;100942.84;5075616;28;1218;-63
2022/05/26 06:50:36;;;;;;;;;;;;;;;15.87;41.35;100942.53;5078868;28;858;-60
2022/05/26 06:53:02;;;;;;;;;;;;;;;15.85;41.30;100922.78;5055956;28;1282;-59
2022/05/26 06:55:27;;;;;;;;;;;;;;;15.89;41.50;100925.81;5065554;28;1214;-59
2022/05/26 06:57:53;;;;;;;;;;;;;;;15.90;41.29;100927.47;5071464;28;996;-60
2022/05/26 07:00:18;;;;;;;;;;;;;;;15.87;41.44;100928.00;5057291;28;1914;-60
2022/05/26 07:02:44;;;;;;;;;;;;;;;15.82;41.47;100925.22;5069908;28;1155;-57
2022/05/26 07:05:11;;;;;;;;;;;;;;;15.86;41.46;100912.66;5070952;28;1063;-58
2022/05/26 07:07:37;;;;;;;;;;;;;;;15.88;41.60;100914.03;5077884;28;777;-60
2022/05/26 07:10:03;;;;;;;;;;;;;;;15.90;41.49;100919.25;5078148;28;805;-58
2022/05/26 07:12:28;;;;;;;;;;;;;;;15.89;41.50;100914.84;5059761;28;864;-58
2022/05/26 07:14:54;;;;;;;;;;;;;;;15.86;41.68;100924.41;5076813;28;1079;-59
2022/05/26 07:17:19;;;;;;;;;;;;;;;15.79;41.74;100910.13;5060457;28;839;-61
2022/05/26 07:19:45;;;;;;;;;;;;;;;15.80;41.43;100919.19;5059247;28;753;-60
2022/05/26 07:22:10;;;;;;;;;;;;;;;15.81;41.34;100918.09;5058888;28;1902;-59
2022/05/26 07:24:36;;;;;;;;;;;;;;;15.91;41.47;100918.16;5056269;28;1100;-60
2022/05/26 07:27:01;;;;;;;;;;;;;;;15.91;41.53;100929.13;5061975;28;1111;-61
2022/05/26 07:29:27;;;;;;;;;;;;;;;15.90;41.49;100927.47;5069547;28;1206;-60
2022/05/26 07:31:52;;;;;;;;;;;;;;;15.87;41.52;100923.34;5060805;28;1242;-61
2022/05/26 07:34:20;;;;;;;;;;;;;;;15.89;41.48;100923.91;5063156;28;766;-62
2022/05/26 07:42:14;;;;;;;;;;;;;;;16.21;43.43;100928.44;5071488;28;1906;-60
2022/05/26 07:44:44;;;;;;;;;;;;;;;16.48;44.43;100934.88;5076861;28;865;-60
2022/05/26 07:47:10;;;;;;;;;;;;;;;16.54;45.36;100931.88;5043803;28;973;-61
2022/05/26 07:49:35;;;;;;;;;;;;;;;16.66;45.81;100937.16;5060935;28;869;-60
2022/05/26 07:52:01;;;;;;;;;;;;;;;16.78;46.22;100939.63;5064967;28;870;-59
2022/05/26 07:54:27;;;;;;;;;;;;;;;16.88;46.48;100936.09;5058206;28;854;-58
2022/05/26 07:56:53;;;;;;;;;;;;;;;16.98;46.70;100935.31;5058158;28;854;-59
2022/05/26 07:59:18;;;;;;;;;;;;;;;17.08;46.74;100936.16;5039917;28;1085;-59
2022/05/26 08:01:44;;;;;;;;;;;;;;;17.00;46.37;100931.22;5062112;28;1906;-59
2022/05/26 08:04:09;;;;;;;;;;;;;;;16.90;45.96;100925.69;5070707;28;1068;-61
2022/05/26 08:06:35;;;;;;;;;;;;;;;16.76;44.96;100934.44;5067233;28;1037;-61
2022/05/26 08:09:00;;;;;;;;;;;;;;;16.56;43.71;100934.34;5072171;28;1242;-59
2022/05/26 08:11:26;;;;;;;;;;;;;;;16.53;43.01;100929.41;5069363;28;1126;-59
2022/05/26 08:13:51;;;;;;;;;;;;;;;16.41;42.33;100943.34;5067437;28;1251;-58
2022/05/26 08:16:16;;;;;;;;;;;;;;;16.37;41.99;100943.09;5069278;28;1293;-58
2022/05/26 08:18:42;;;;;;;;;;;;;;;16.33;41.46;100935.66;5068633;28;1320;-59
2022/05/26 08:21:08;;;;;;;;;;;;;;;16.20;41.54;100937.78;5065302;28;1898;-60
2022/05/26 08:23:34;;;;;;;;;;;;;;;16.22;41.08;100941.09;5067868;28;1215;-60
2022/05/26 08:25:59;;;;;;;;;;;;;;;16.20;41.39;100936.94;5066735;28;1317;-60
2022/05/26 08:28:25;;;;;;;;;;;;;;;16.14;41.42;100936.09;5067450;28;805;-61
2022/05/26 08:30:50;;;;;;;;;;;;;;;16.08;41.20;100946.22;5062568;28;879;-60
2022/05/26 08:33:16;;;;;;;;;;;;;;;16.02;40.91;100921.75;5058874;28;1060;-59
2022/05/26 08:35:41;;;;;;;;;;;;;;;16.02;40.86;100933.59;5072211;28;1270;-57
2022/05/26 08:38:06;;;;;;;;;;;;;;;16.03;41.06;100926.16;5068063;28;1265;-59
2022/05/26 08:40:34;;;;;;;;;;;;;;;16.03;41.02;100931.66;5069812;28;1974;-59
2022/05/26 08:43:00;;;;;;;;;;;;;;;15.95;41.19;100935.75;5057582;28;728;-59
2022/05/26 08:45:26;;;;;;;;;;;;;;;15.98;41.19;100934.38;5041248;28;836;-59
2022/05/26 08:47:51;;;;;;;;;;;;;;;15.96;40.90;100940.13;5044431;28;1032;-59
2022/05/26 08:50:17;;;;;;;;;;;;;;;15.96;40.85;100926.41;5073396;28;1249;-58
2022/05/26 08:53:21;;;;;;;;;;;;;;;15.94;41.05;100934.09;5063311;28;870;-59
2022/05/26 08:55:47;;;;;;;;;;;;;;;15.94;40.89;100925.84;4993377;28;1240;-60
2022/05/26 08:58:17;;;;;;;;;;;;;;;15.96;41.15;100931.88;4978979;28;762;-59
2022/05/26 09:00:43;;;;;;;;;;;;;;;15.84;41.44;100925.81;5025126;28;1909;-59
2022/05/26 09:03:20;;;;;;;;;;;;;;;15.96;41.25;100928.31;5057119;28;806;-59
2022/05/26 09:05:46;;;;;;;;;;;;;;;15.92;41.23;100928.03;5041588;28;802;-59
2022/05/26 09:13:41;;;;;;;;;;;;;;;15.91;40.84;100926.41;5076069;28;1110;-59
2022/05/26 09:16:07;;;;;;;;;;;;;;;15.87;41.00;100928.81;5071996;28;854;-59
2022/05/26 09:18:32;;;;;;;;;;;;;;;15.81;41.25;100923.56;5062242;28;914;-59
2022/05/26 09:21:11;;;;;;;;;;;;;;;15.89;41.06;100926.66;5039211;28;1979;-58
2022/05/26 09:23:38;;;;;;;;;;;;;;;15.84;41.11;100920.31;5056676;28;965;-59
2022/05/26 09:26:05;;;;;;;;;;;;;;;15.85;41.17;100930.19;5057007;28;774;-61
2022/05/26 09:28:40;;;;;;;;;;;;;;;15.86;41.16;100920.88;5038204;28;861;-60
2022/05/26 09:31:21;;;;;;;;;;;;;;;15.88;41.09;100922.25;5061943;28;762;-59
2022/05/26 09:34:07;;;;;;;;;;;;;;;15.88;41.10;100924.19;5062434;28;877;-59
2022/05/26 09:36:36;;;;;;;;;;;;;;;15.85;41.15;100920.06;5042633;28;1193;-59
2022/05/26 09:39:02;;;;;;;;;;;;;;;15.81;41.25;100918.09;5056748;28;838;-59
2022/05/26 09:41:27;;;;;;;;;;;;;;;15.87;40.96;100919.78;5038186;28;1906;-59
2022/05/26 09:43:54;;;;;;;;;;;;;;;15.78;41.33;100910.38;5062683;28;867;-60
2022/05/26 09:46:21;;;;;;;;;;;;;;;15.81;41.34;100901.63;5057971;28;864;-59
2022/05/26 09:48:46;;;;;;;;;;;;;;;15.95;42.05;100907.47;5038592;28;937;-59
2022/05/26 09:51:23;;;;;;;;;;;;;;;16.12;42.76;100912.75;5038513;28;1424;-59
2022/05/26 09:53:52;;;;;;;;;;;;;;;16.34;44.17;100910.69;5056433;28;834;-59
2022/05/26 09:56:28;;;;;;;;;;;;;;;16.51;45.02;100906.88;5043447;28;813;-59
2022/05/26 09:58:53;;;;;;;;;;;;;;;16.68;45.51;100921.22;5041929;28;990;-59
2022/05/26 10:01:23;;;;;;;;;;;;;;;16.79;46.04;100902.00;5041921;28;1903;-59
2022/05/26 10:04:04;;;;;;;;;;;;;;;16.85;46.29;100903.69;5061077;28;1126;-59
2022/05/26 10:06:36;;;;;;;;;;;;;;;16.95;46.65;100903.72;5059856;28;832;-59
2022/05/26 10:09:05;;;;;;;;;;;;;;;17.13;46.80;100907.03;5072811;28;823;-59
2022/05/26 10:11:49;;;;;;;;;;;;;;;17.09;47.01;100901.25;5059895;28;818;-59
2022/05/26 10:14:19;;;;;;;;;;;;;;;16.99;46.30;100899.34;5060218;28;1033;-59
2022/05/26 10:16:52;;;;;;;;;;;;;;;16.91;45.39;100905.38;5051407;28;1057;-59
2022/05/26 10:19:47;;;;;;;;;;;;;;;16.80;44.16;100907.22;5056181;28;1227;-60
2022/05/26 10:22:21;;;;;;;;;;;;;;;16.67;43.33;100910.50;4987815;28;1969;-59
2022/05/26 10:24:56;;;;;;;;;;;;;;;16.52;42.40;100903.03;5056496;28;1304;-61
2022/05/26 10:27:51;;;;;;;;;;;;;;;16.48;42.30;100904.69;5070749;28;1301;-61
2022/05/26 10:30:25;;;;;;;;;;;;;;;16.44;41.94;100896.19;5058127;28;1261;-60
2022/05/26 10:33:00;;;;;;;;;;;;;;;16.39;41.71;100894.22;5072283;28;1225;-59
2022/05/26 10:35:26;;;;;;;;;;;;;;;16.34;41.43;100891.47;5070081;28;1290;-58
2022/05/26 10:38:01;;;;;;;;;;;;;;;16.36;41.33;100897.50;5069956;28;1191;-59
2022/05/26 10:40:46;;;;;;;;;;;;;;;16.28;41.53;100900.78;5053472;28;2012;-61
2022/05/26 10:43:15;;;;;;;;;;;;;;;16.24;41.36;100888.69;5056106;28;1100;-58
2022/05/26 10:45:42;;;;;;;;;;;;;;;16.24;41.00;100880.44;5070782;28;1171;-59
2022/05/26 10:48:25;;;;;;;;;;;;;;;16.16;41.33;100892.78;5051040;28;1195;-59
2022/05/26 10:50:53;;;;;;;;;;;;;;;16.27;41.04;100898.31;5067414;28;1330;-58
2022/05/26 10:53:23;;;;;;;;;;;;;;;16.23;41.16;100898.03;5047997;28;1438;-58
2022/05/26 10:55:54;;;;;;;;;;;;;;;16.19;41.14;100896.91;5056787;28;1174;-57
2022/05/26 10:58:29;;;;;;;;;;;;;;;16.23;41.09;100889.78;5059353;28;758;-60
2022/05/26 11:00:55;;;;;;;;;;;;;;;16.13;41.20;100895.22;5065633;28;1983;-61
2022/05/26 11:03:25;;;;;;;;;;;;;;;16.17;41.29;100899.09;5045315;28;1075;-61
2022/05/26 11:05:53;;;;;;;;;;;;;;;16.13;41.37;100903.44;5059401;28;782;-60
2022/05/26 11:08:37;;;;;;;;;;;;;;;16.14;41.53;100891.41;5039602;28;898;-59
2022/05/26 11:11:02;;;;;;;;;;;;;;;16.10;41.33;100887.53;5058938;28;843;-62
2022/05/26 11:13:37;;;;;;;;;;;;;;;16.16;41.48;100887.28;5041542;28;974;-60
2022/05/26 11:18:49;;;;;;;;;;;;;;;16.12;41.22;100885.34;5049437;28;808;-58
2022/05/26 11:21:21;;;;;;;;;;;;;;;16.15;41.26;100890.31;5040292;28;1961;-61
2022/05/26 11:23:47;;;;;;;;;;;;;;;16.17;41.13;100891.69;5040922;28;834;-60
2022/05/26 11:26:33;;;;;;;;;;;;;;;16.14;41.55;100891.41;5044413;28;1110;-60
2022/05/26 11:29:08;;;;;;;;;;;;;;;16.17;41.42;100888.09;5041041;28;918;-60
2022/05/26 11:37:21;;;;;;;;;;;;;;;16.08;41.54;100891.34;5062587;28;789;-58
2022/05/26 11:39:46;;;;;;;;;;;;;;;16.16;41.16;100886.44;5042254;28;904;-58
2022/05/26 11:42:13;;;;;;;;;;;;;;;16.08;41.30;100885.88;5058618;28;1979;-58
2022/05/26 11:44:45;;;;;;;;;;;;;;;16.30;43.60;100893.09;5057864;28;1579;-58
2022/05/26 11:47:12;;;;;;;;;;;;;;;17.93;49.29;100895.41;5046174;28;1223;-58
2022/05/26 11:49:44;;;;;;;;;;;;;;;18.50;51.52;100892.44;5058887;28;751;-58
2022/05/26 11:52:25;;;;;;;;;;;;;;;19.37;53.40;100888.25;5065194;28;1582;-58
2022/05/26 11:54:58;;;;;;;;;;;;;;;20.05;52.87;100883.69;5058337;28;800;-60
2022/05/26 11:57:30;;;;;;;;;;;;;;;18.94;53.04;100889.72;5077637;28;806;-59
2022/05/26 11:59:59;;;;;;;;;;;;;;;16.56;57.14;100891.28;5077591;28;896;-58
2022/05/26 12:02:29;;;;;;;;;;;;;;;17.41;50.60;100884.47;5046545;28;1922;-58
2022/05/26 12:04:54;;;;;;;;;;;;;;;17.45;47.83;100890.28;5059809;28;896;-58
2022/05/26 12:07:22;;;;;;;;;;;;;;;17.40;46.27;100884.75;5058239;28;918;-58
2022/05/26 12:09:52;;;;;;;;;;;;;;;17.18;44.93;100874.91;5057776;28;882;-60
2022/05/26 12:12:18;;;;;;;;;;;;;;;17.14;43.88;100889.44;5057970;28;889;-58
2022/05/26 12:14:46;;;;;;;;;;;;;;;16.98;43.52;100878.44;5058100;28;1011;-59
2022/05/26 12:17:30;;;;;;;;;;;;;;;16.87;43.03;100874.00;5068099;28;1073;-58
2022/05/26 12:20:15;;;;;;;;;;;;;;;16.83;42.09;100870.16;5057424;28;842;-58
2022/05/26 12:22:51;;;;;;;;;;;;;;;16.73;41.77;100874.56;5043772;28;1910;-59
2022/05/26 12:25:17;;;;;;;;;;;;;;;16.62;41.52;100861.91;5057934;28;1546;-58
2022/05/26 12:27:48;;;;;;;;;;;;;;;16.61;41.33;100860.25;5057810;28;839;-58
2022/05/26 12:30:28;;;;;;;;;;;;;;;16.46;41.08;100855.53;5060602;28;865;-58
2022/05/26 12:32:53;;;;;;;;;;;;;;;16.46;41.03;100857.47;5057619;28;806;-58
2022/05/26 12:35:37;;;;;;;;;;;;;;;16.41;40.72;100861.88;5047448;28;1144;-60
2022/05/26 12:38:06;;;;;;;;;;;;;;;16.35;41.03;100868.41;5069773;28;1214;-61
2022/05/26 12:40:32;;;;;;;;;;;;;;;16.35;40.77;100864.84;5054148;28;1910;-59
2022/05/26 12:43:16;;;;;;;;;;;;;;;16.28;40.75;100864.28;5070630;28;1294;-59
2022/05/26 12:45:45;;;;;;;;;;;;;;;16.25;40.60;100860.97;5070407;28;1085;-61
2022/05/26 12:48:18;;;;;;;;;;;;;;;16.21;40.33;100859.03;5053749;28;1151;-59
2022/05/26 12:50:44;;;;;;;;;;;;;;;16.19;40.30;100858.50;5069043;28;1399;-60
2022/05/26 12:53:12;;;;;;;;;;;;;;;16.14;40.31;100845.56;5070543;28;1088;-60
2022/05/26 12:55:44;;;;;;;;;;;;;;;16.19;40.26;100853.00;5053593;28;1068;-61
2022/05/26 12:58:20;;;;;;;;;;;;;;;16.11;40.21;100850.78;5045224;28;1123;-60
2022/05/26 13:00:46;;;;;;;;;;;;;;;16.06;40.15;100854.31;5073315;28;1905;-59
2022/05/26 13:03:14;;;;;;;;;;;;;;;16.10;40.38;100844.47;5058392;28;806;-58
2022/05/26 13:05:42;;;;;;;;;;;;;;;16.06;40.37;100855.16;5062992;28;1253;-59
2022/05/26 13:08:13;;;;;;;;;;;;;;;16.02;40.09;100845.81;5048495;28;1345;-60
2022/05/26 13:10:38;;;;;;;;;;;;;;;16.01;40.18;100857.06;5057631;28;1064;-58
2022/05/26 13:13:05;;;;;;;;;;;;;;;16.05;40.09;100847.19;5047808;28;1271;-59
2022/05/26 13:15:30;;;;;;;;;;;;;;;16.04;40.18;100857.31;5040211;28;1350;-59
2022/05/26 13:17:56;;;;;;;;;;;;;;;15.95;40.55;100853.47;5076676;28;1209;-60
2022/05/26 13:20:39;;;;;;;;;;;;;;;15.92;40.45;100864.94;5064946;28;1312;-60
2022/05/26 13:23:05;;;;;;;;;;;;;;;15.87;40.37;100862.19;5064944;28;1064;-60
2022/05/26 13:25:31;;;;;;;;;;;;;;;15.90;39.96;100858.91;5044954;28;1216;-60
2022/05/26 13:28:01;;;;;;;;;;;;;;;15.83;40.21;100856.41;5050629;28;1199;-58
2022/05/26 13:33:18;;;;;;;;;;;;;;;15.89;40.03;100857.25;5052696;28;1112;-60
2022/05/26 13:35:56;;;;;;;;;;;;;;;15.90;40.49;100845.22;5056818;28;877;-59
2022/05/26 13:38:23;;;;;;;;;;;;;;;15.88;40.99;100859.19;5056852;28;737;-59
2022/05/26 13:40:48;;;;;;;;;;;;;;;15.90;40.96;100851.50;5056413;28;1909;-59
2022/05/26 13:43:14;;;;;;;;;;;;;;;15.88;41.34;100850.97;5056104;28;838;-59